Deo Volente — PHFJ — position and weather

sailwx.info

Track history (hours):
 
Tides and Currents Weather Stations Pressure Air Temp Water Temp Dewpoint Dewpoint Depression Visibility Wind Speed Wind Dir Waves Ship Positions

Deo Volente

Last reported at 2016-Jul-27 18:21 UTC. Time now 2016-Jul-28 20:19 UTC.
Position N 44°11' E 014°34'.

Length 105 m; draft 5.1 m.

Type: Cargo ship. MMSI: 246518000.

Date/timePositionNaut miles runAvg speedWind from/ knotsBaromVisibWave heightAir tempDewpointWater temp
2016-Jul-27 18:21N 44°11' E 014°34'1316.2
2016-Jul-27 17:33N 44°19' E 014°21'1616.0
2016-Jul-27 16:33N 44°30' E 014°04'1616.2
2016-Jul-27 15:33N 44°42' E 013°48'1615.5
2016-Jul-27 14:32N 44°54' E 013°34'1515.3
2016-Jul-27 13:32N 45°08' E 013°26'1515.3
2016-Jul-27 12:33N 45°23' E 013°20'10 0.9
2016-Jul-27 00:33N 45°13' E 013°15'8 7.4
2016-Jul-26 23:25N 45°05' E 013°18'6 7.5
2016-Jul-26 22:33N 44°59' E 013°22'7 7.5
2016-Jul-26 21:33N 44°53' E 013°27'8 7.6
2016-Jul-26 20:33N 44°46' E 013°33'30 8.9
2016-Jul-26 17:08N 44°21' E 013°56'205 6.7
2016-Jul-25 10:28N 42°30' E 017°54'1515.9
2016-Jul-25 09:33N 42°26' E 018°13'1414.4
2016-Jul-25 08:33N 42°24' E 018°32'3 2.9
2016-Jul-25 07:33N 42°27' E 018°34'0 0.0
2016-Jul-25 06:33N 42°27' E 018°34'0 0.0
2016-Jul-25 05:33N 42°27' E 018°34'0 0.0
2016-Jul-25 04:33N 42°27' E 018°34'4 4.2
2016-Jul-25 03:33N 42°23' E 018°31'6 6.2
2016-Jul-25 02:33N 42°25' E 018°23'7 6.9
2016-Jul-25 01:33N 42°26' E 018°14'7 7.2
2016-Jul-25 00:33N 42°28' E 018°05'131 7.7
2016-Jul-24 07:33N 43°09' E 015°15'54 8.9
2016-Jul-24 01:30N 43°41' E 014°17'7 7.6
2016-Jul-24 00:33N 43°46' E 014°09'15 7.4
2016-Jul-23 22:33N 43°53' E 013°52'8 7.1
2016-Jul-23 21:24N 43°57' E 013°42'6 7.2
2016-Jul-23 20:33N 44°01' E 013°35'7 7.3
2016-Jul-23 19:33N 44°05' E 013°27'7 7.4
2016-Jul-23 18:34N 44°10' E 013°18'7 7.5
2016-Jul-23 17:33N 44°15' E 013°12'8 7.5
2016-Jul-23 16:33N 44°23' E 013°08'8 7.6
2016-Jul-23 15:32N 44°30' E 013°04'1412.1
2016-Jul-23 14:23N 44°43' E 012°57'1011.0
2016-Jul-23 13:29N 44°52' E 012°52'8 8.9
2016-Jul-23 12:34N 44°60' E 012°48'8 8.5
2016-Jul-23 11:34N 45°07' E 012°41'1212.1
2016-Jul-23 10:34N 45°12' E 012°26'7 7.0
2016-Jul-23 09:33N 45°13' E 012°16'0 0.0
2016-Jul-23 08:33N 45°13' E 012°16'0 0.0
2016-Jul-23 07:33N 45°13' E 012°16'0 0.0
2016-Jul-23 06:33N 45°13' E 012°16'0 0.0
2016-Jul-23 04:34N 45°13' E 012°16'0 0.2
2016-Jul-23 03:33N 45°12' E 012°16'0 0.0
2016-Jul-23 02:33N 45°12' E 012°16'0 0.0
2016-Jul-23 01:33N 45°13' E 012°16'0 0.0
2016-Jul-23 00:33N 45°12' E 012°16'0 0.0
2016-Jul-22 23:33N 45°12' E 012°16'0 0.0
2016-Jul-22 22:33N 45°12' E 012°16'0 0.0
2016-Jul-22 21:33N 45°12' E 012°16'0 0.0
2016-Jul-22 20:33N 45°12' E 012°16'0 0.0
2016-Jul-22 19:33N 45°12' E 012°16'0 0.0
2016-Jul-22 18:33N 45°12' E 012°16'0 0.0
2016-Jul-22 17:33N 45°12' E 012°16'0 0.0
2016-Jul-22 16:33N 45°12' E 012°16'0 0.0
2016-Jul-22 15:33N 45°12' E 012°16'3 3.2
2016-Jul-22 14:33N 45°14' E 012°20'1010.4
2016-Jul-22 13:33N 45°16' E 012°34'1515.1
2016-Jul-22 12:33N 45°05' E 012°50'1615.6
2016-Jul-22 11:33N 44°51' E 012°58'1616.0
2016-Jul-22 10:33N 44°36' E 013°07'1616.0
2016-Jul-22 09:33N 44°21' E 013°15'1615.7
2016-Jul-22 08:33N 44°10' E 013°30'1615.9
2016-Jul-22 07:33N 44°00' E 013°47'4916.3
2016-Jul-22 04:33N 43°26' E 014°36'1716.2
2016-Jul-22 03:32N 43°14' E 014°52'1816.6
2016-Jul-22 02:27N 43°02' E 015°10'3015.9
2016-Jul-22 00:34N 42°41' E 015°39'  
Track history (hours):
 
Tides and Currents Weather Stations Pressure Air Temp Water Temp Dewpoint Dewpoint Depression Visibility Wind Speed Wind Dir Waves Ship Positions

Deo Volente

Last reported at 2016-Jul-27 18:21 UTC. Time now 2016-Jul-28 20:19 UTC.
Position N 44°11' E 014°34'.

Length 105 m; draft 5.1 m.

Type: Cargo ship. MMSI: 246518000.

Date/timePositionNaut miles runAvg speedWind from/ knotsBaromVisibWave heightAir tempDewpointWater temp
2016-Jul-27 18:21N 44°11' E 014°34'1316.2
2016-Jul-27 17:33N 44°19' E 014°21'1616.0
2016-Jul-27 16:33N 44°30' E 014°04'1616.2
2016-Jul-27 15:33N 44°42' E 013°48'1615.5
2016-Jul-27 14:32N 44°54' E 013°34'1515.3
2016-Jul-27 13:32N 45°08' E 013°26'1515.3
2016-Jul-27 12:33N 45°23' E 013°20'10 0.9
2016-Jul-27 00:33N 45°13' E 013°15'8 7.4
2016-Jul-26 23:25N 45°05' E 013°18'6 7.5
2016-Jul-26 22:33N 44°59' E 013°22'7 7.5
2016-Jul-26 21:33N 44°53' E 013°27'8 7.6
2016-Jul-26 20:33N 44°46' E 013°33'30 8.9
2016-Jul-26 17:08N 44°21' E 013°56'205 6.7
2016-Jul-25 10:28N 42°30' E 017°54'1515.9
2016-Jul-25 09:33N 42°26' E 018°13'1414.4
2016-Jul-25 08:33N 42°24' E 018°32'3 2.9
2016-Jul-25 07:33N 42°27' E 018°34'0 0.0
2016-Jul-25 06:33N 42°27' E 018°34'0 0.0
2016-Jul-25 05:33N 42°27' E 018°34'0 0.0
2016-Jul-25 04:33N 42°27' E 018°34'4 4.2
2016-Jul-25 03:33N 42°23' E 018°31'6 6.2
2016-Jul-25 02:33N 42°25' E 018°23'7 6.9
2016-Jul-25 01:33N 42°26' E 018°14'7 7.2
2016-Jul-25 00:33N 42°28' E 018°05'131 7.7
2016-Jul-24 07:33N 43°09' E 015°15'54 8.9
2016-Jul-24 01:30N 43°41' E 014°17'7 7.6
2016-Jul-24 00:33N 43°46' E 014°09'15 7.4
2016-Jul-23 22:33N 43°53' E 013°52'8 7.1
2016-Jul-23 21:24N 43°57' E 013°42'6 7.2
2016-Jul-23 20:33N 44°01' E 013°35'7 7.3
2016-Jul-23 19:33N 44°05' E 013°27'7 7.4
2016-Jul-23 18:34N 44°10' E 013°18'7 7.5
2016-Jul-23 17:33N 44°15' E 013°12'8 7.5
2016-Jul-23 16:33N 44°23' E 013°08'8 7.6
2016-Jul-23 15:32N 44°30' E 013°04'1412.1
2016-Jul-23 14:23N 44°43' E 012°57'1011.0
2016-Jul-23 13:29N 44°52' E 012°52'8 8.9
2016-Jul-23 12:34N 44°60' E 012°48'8 8.5
2016-Jul-23 11:34N 45°07' E 012°41'1212.1
2016-Jul-23 10:34N 45°12' E 012°26'7 7.0
2016-Jul-23 09:33N 45°13' E 012°16'0 0.0
2016-Jul-23 08:33N 45°13' E 012°16'0 0.0
2016-Jul-23 07:33N 45°13' E 012°16'0 0.0
2016-Jul-23 06:33N 45°13' E 012°16'0 0.0
2016-Jul-23 04:34N 45°13' E 012°16'0 0.2
2016-Jul-23 03:33N 45°12' E 012°16'0 0.0
2016-Jul-23 02:33N 45°12' E 012°16'0 0.0
2016-Jul-23 01:33N 45°13' E 012°16'0 0.0
2016-Jul-23 00:33N 45°12' E 012°16'0 0.0
2016-Jul-22 23:33N 45°12' E 012°16'0 0.0
2016-Jul-22 22:33N 45°12' E 012°16'0 0.0
2016-Jul-22 21:33N 45°12' E 012°16'0 0.0
2016-Jul-22 20:33N 45°12' E 012°16'0 0.0
2016-Jul-22 19:33N 45°12' E 012°16'0 0.0
2016-Jul-22 18:33N 45°12' E 012°16'0 0.0
2016-Jul-22 17:33N 45°12' E 012°16'0 0.0
2016-Jul-22 16:33N 45°12' E 012°16'0 0.0
2016-Jul-22 15:33N 45°12' E 012°16'3 3.2
2016-Jul-22 14:33N 45°14' E 012°20'1010.4
2016-Jul-22 13:33N 45°16' E 012°34'1515.1
2016-Jul-22 12:33N 45°05' E 012°50'1615.6
2016-Jul-22 11:33N 44°51' E 012°58'1616.0
2016-Jul-22 10:33N 44°36' E 013°07'1616.0
2016-Jul-22 09:33N 44°21' E 013°15'1615.7
2016-Jul-22 08:33N 44°10' E 013°30'1615.9
2016-Jul-22 07:33N 44°00' E 013°47'4916.3
2016-Jul-22 04:33N 43°26' E 014°36'1716.2
2016-Jul-22 03:32N 43°14' E 014°52'1816.6
2016-Jul-22 02:27N 43°02' E 015°10'3015.9
2016-Jul-22 00:34N 42°41' E 015°39'  

Dump ship's entire track history